sensor_id;sensor_type;location;lat;lon;timestamp;P1;durP1;ratioP1;P2;durP2;ratioP2
1569;SDS011;778;50.120;8.698;2023-07-28T00:00:17;3.20;;;2.53;;
1569;SDS011;778;50.120;8.698;2023-07-28T00:02:47;4.90;;;4.10;;
1569;SDS011;778;50.120;8.698;2023-07-28T00:05:16;4.30;;;3.17;;
1569;SDS011;778;50.120;8.698;2023-07-28T00:07:45;4.30;;;4.00;;
1569;SDS011;778;50.120;8.698;2023-07-28T00:10:13;2.90;;;2.60;;
1569;SDS011;778;50.120;8.698;2023-07-28T00:12:41;3.37;;;3.10;;
1569;SDS011;778;50.120;8.698;2023-07-28T00:15:10;4.17;;;3.00;;
1569;SDS011;778;50.120;8.698;2023-07-28T00:17:38;3.30;;;3.00;;
1569;SDS011;778;50.120;8.698;2023-07-28T00:20:11;3.50;;;3.20;;
1569;SDS011;778;50.120;8.698;2023-07-28T00:22:39;3.43;;;3.03;;
1569;SDS011;778;50.120;8.698;2023-07-28T00:25:08;2.70;;;2.50;;
1569;SDS011;778;50.120;8.698;2023-07-28T00:27:36;3.77;;;2.70;;
1569;SDS011;778;50.120;8.698;2023-07-28T00:30:05;3.23;;;3.03;;
1569;SDS011;778;50.120;8.698;2023-07-28T00:32:35;3.30;;;3.00;;
1569;SDS011;778;50.120;8.698;2023-07-28T00:35:04;4.83;;;2.90;;
1569;SDS011;778;50.120;8.698;2023-07-28T00:37:34;4.63;;;3.50;;
1569;SDS011;778;50.120;8.698;2023-07-28T00:40:03;5.70;;;3.60;;
1569;SDS011;778;50.120;8.698;2023-07-28T00:42:33;3.03;;;2.83;;
1569;SDS011;778;50.120;8.698;2023-07-28T00:45:03;4.10;;;3.30;;
1569;SDS011;778;50.120;8.698;2023-07-28T00:47:32;4.30;;;4.00;;
1569;SDS011;778;50.120;8.698;2023-07-28T00:50:01;3.00;;;2.67;;
1569;SDS011;778;50.120;8.698;2023-07-28T00:52:30;5.30;;;3.57;;
1569;SDS011;778;50.120;8.698;2023-07-28T00:55:00;3.57;;;3.27;;
1569;SDS011;778;50.120;8.698;2023-07-28T00:57:28;3.70;;;3.40;;
1569;SDS011;778;50.120;8.698;2023-07-28T00:59:57;3.70;;;3.30;;
1569;SDS011;778;50.120;8.698;2023-07-28T01:02:26;5.77;;;3.97;;
1569;SDS011;778;50.120;8.698;2023-07-28T01:04:54;3.90;;;3.50;;
1569;SDS011;778;50.120;8.698;2023-07-28T01:07:25;4.33;;;3.87;;
1569;SDS011;778;50.120;8.698;2023-07-28T01:10:02;4.13;;;3.77;;
1569;SDS011;778;50.120;8.698;2023-07-28T01:12:36;3.73;;;3.43;;
1569;SDS011;778;50.120;8.698;2023-07-28T01:15:05;4.20;;;3.43;;
1569;SDS011;778;50.120;8.698;2023-07-28T01:17:34;4.33;;;3.90;;
1569;SDS011;778;50.120;8.698;2023-07-28T01:20:03;4.10;;;3.70;;
1569;SDS011;778;50.120;8.698;2023-07-28T01:22:41;4.03;;;3.60;;
1569;SDS011;778;50.120;8.698;2023-07-28T01:25:28;4.10;;;3.70;;
1569;SDS011;778;50.120;8.698;2023-07-28T01:28:05;4.07;;;3.77;;
1569;SDS011;778;50.120;8.698;2023-07-28T01:30:34;4.90;;;4.07;;
1569;SDS011;778;50.120;8.698;2023-07-28T01:33:05;4.13;;;3.83;;
1569;SDS011;778;50.120;8.698;2023-07-28T01:35:35;4.60;;;4.20;;
1569;SDS011;778;50.120;8.698;2023-07-28T01:38:05;4.67;;;4.27;;
1569;SDS011;778;50.120;8.698;2023-07-28T01:40:33;4.63;;;4.20;;
1569;SDS011;778;50.120;8.698;2023-07-28T01:43:02;4.97;;;4.47;;
1569;SDS011;778;50.120;8.698;2023-07-28T01:45:32;4.83;;;4.43;;
1569;SDS011;778;50.120;8.698;2023-07-28T01:48:00;5.03;;;4.40;;
1569;SDS011;778;50.120;8.698;2023-07-28T01:50:29;4.37;;;3.97;;
1569;SDS011;778;50.120;8.698;2023-07-28T01:52:58;6.03;;;4.53;;
1569;SDS011;778;50.120;8.698;2023-07-28T01:55:26;6.73;;;4.50;;
1569;SDS011;778;50.120;8.698;2023-07-28T01:57:55;4.27;;;3.97;;
1569;SDS011;778;50.120;8.698;2023-07-28T02:00:26;6.03;;;4.57;;
1569;SDS011;778;50.120;8.698;2023-07-28T02:02:56;4.30;;;3.90;;
1569;SDS011;778;50.120;8.698;2023-07-28T02:05:25;4.60;;;4.20;;
1569;SDS011;778;50.120;8.698;2023-07-28T02:07:53;5.23;;;4.87;;
1569;SDS011;778;50.120;8.698;2023-07-28T02:10:22;5.87;;;5.37;;
1569;SDS011;778;50.120;8.698;2023-07-28T02:12:51;4.60;;;4.20;;
1569;SDS011;778;50.120;8.698;2023-07-28T02:15:19;5.10;;;4.70;;
1569;SDS011;778;50.120;8.698;2023-07-28T02:17:48;7.73;;;3.97;;
1569;SDS011;778;50.120;8.698;2023-07-28T02:20:18;4.93;;;4.53;;
1569;SDS011;778;50.120;8.698;2023-07-28T02:22:46;5.17;;;4.77;;
1569;SDS011;778;50.120;8.698;2023-07-28T02:25:15;5.20;;;4.80;;
1569;SDS011;778;50.120;8.698;2023-07-28T02:27:43;4.53;;;4.23;;
1569;SDS011;778;50.120;8.698;2023-07-28T02:30:12;7.17;;;4.90;;
1569;SDS011;778;50.120;8.698;2023-07-28T02:32:40;4.57;;;4.13;;
1569;SDS011;778;50.120;8.698;2023-07-28T02:35:09;4.43;;;4.03;;
1569;SDS011;778;50.120;8.698;2023-07-28T02:37:39;4.50;;;4.10;;
1569;SDS011;778;50.120;8.698;2023-07-28T02:40:08;4.90;;;4.47;;
1569;SDS011;778;50.120;8.698;2023-07-28T02:42:37;4.20;;;3.90;;
1569;SDS011;778;50.120;8.698;2023-07-28T02:45:06;4.53;;;4.13;;
1569;SDS011;778;50.120;8.698;2023-07-28T02:47:37;4.67;;;4.27;;
1569;SDS011;778;50.120;8.698;2023-07-28T02:50:05;4.43;;;4.13;;
1569;SDS011;778;50.120;8.698;2023-07-28T02:52:34;3.57;;;3.30;;
1569;SDS011;778;50.120;8.698;2023-07-28T02:55:04;4.53;;;4.20;;
1569;SDS011;778;50.120;8.698;2023-07-28T02:57:33;4.93;;;4.53;;
1569;SDS011;778;50.120;8.698;2023-07-28T03:00:02;3.77;;;3.57;;
1569;SDS011;778;50.120;8.698;2023-07-28T03:02:32;5.07;;;4.57;;
1569;SDS011;778;50.120;8.698;2023-07-28T03:05:01;4.43;;;4.03;;
1569;SDS011;778;50.120;8.698;2023-07-28T03:07:49;10.47;;;4.73;;
1569;SDS011;778;50.120;8.698;2023-07-28T03:10:19;4.20;;;3.80;;
1569;SDS011;778;50.120;8.698;2023-07-28T03:12:48;4.03;;;3.73;;
1569;SDS011;778;50.120;8.698;2023-07-28T03:15:16;4.07;;;3.77;;
1569;SDS011;778;50.120;8.698;2023-07-28T03:17:45;4.83;;;3.53;;
1569;SDS011;778;50.120;8.698;2023-07-28T03:20:13;4.87;;;4.37;;
1569;SDS011;778;50.120;8.698;2023-07-28T03:22:42;4.53;;;4.10;;
1569;SDS011;778;50.120;8.698;2023-07-28T03:25:11;4.67;;;4.27;;
1569;SDS011;778;50.120;8.698;2023-07-28T03:27:41;4.60;;;4.30;;
1569;SDS011;778;50.120;8.698;2023-07-28T03:30:10;5.63;;;4.57;;
1569;SDS011;778;50.120;8.698;2023-07-28T03:32:39;5.03;;;4.63;;
1569;SDS011;778;50.120;8.698;2023-07-28T03:35:07;4.40;;;4.00;;
1569;SDS011;778;50.120;8.698;2023-07-28T03:37:42;5.40;;;3.87;;
1569;SDS011;778;50.120;8.698;2023-07-28T03:40:11;4.87;;;4.47;;
1569;SDS011;778;50.120;8.698;2023-07-28T03:42:52;4.83;;;4.50;;
1569;SDS011;778;50.120;8.698;2023-07-28T03:45:21;5.30;;;4.50;;
1569;SDS011;778;50.120;8.698;2023-07-28T03:47:50;5.00;;;4.50;;
1569;SDS011;778;50.120;8.698;2023-07-28T03:50:18;4.60;;;4.20;;
1569;SDS011;778;50.120;8.698;2023-07-28T03:52:46;5.47;;;4.97;;
1569;SDS011;778;50.120;8.698;2023-07-28T03:55:15;4.40;;;4.00;;
1569;SDS011;778;50.120;8.698;2023-07-28T03:57:43;5.03;;;4.63;;
1569;SDS011;778;50.120;8.698;2023-07-28T04:00:13;5.17;;;4.67;;
1569;SDS011;778;50.120;8.698;2023-07-28T04:02:42;4.30;;;3.90;;
1569;SDS011;778;50.120;8.698;2023-07-28T04:05:10;6.37;;;4.17;;
1569;SDS011;778;50.120;8.698;2023-07-28T04:07:39;5.43;;;4.87;;
1569;SDS011;778;50.120;8.698;2023-07-28T04:10:08;5.70;;;4.87;;
1569;SDS011;778;50.120;8.698;2023-07-28T04:12:37;4.43;;;4.10;;
1569;SDS011;778;50.120;8.698;2023-07-28T04:15:05;4.47;;;4.07;;
1569;SDS011;778;50.120;8.698;2023-07-28T04:17:37;4.70;;;4.30;;
1569;SDS011;778;50.120;8.698;2023-07-28T04:20:06;5.23;;;4.67;;
1569;SDS011;778;50.120;8.698;2023-07-28T04:22:35;3.83;;;3.53;;
1569;SDS011;778;50.120;8.698;2023-07-28T04:25:04;4.17;;;3.77;;
1569;SDS011;778;50.120;8.698;2023-07-28T04:27:36;4.23;;;3.70;;
1569;SDS011;778;50.120;8.698;2023-07-28T04:30:05;4.97;;;4.67;;
1569;SDS011;778;50.120;8.698;2023-07-28T04:32:34;4.63;;;3.73;;
1569;SDS011;778;50.120;8.698;2023-07-28T04:35:17;5.03;;;4.03;;
1569;SDS011;778;50.120;8.698;2023-07-28T04:37:56;4.43;;;3.87;;
1569;SDS011;778;50.120;8.698;2023-07-28T04:40:48;3.77;;;3.30;;
1569;SDS011;778;50.120;8.698;2023-07-28T04:43:23;4.93;;;4.37;;
1569;SDS011;778;50.120;8.698;2023-07-28T04:45:54;5.37;;;4.57;;
1569;SDS011;778;50.120;8.698;2023-07-28T04:48:26;4.60;;;4.30;;
1569;SDS011;778;50.120;8.698;2023-07-28T04:50:56;4.00;;;3.70;;
1569;SDS011;778;50.120;8.698;2023-07-28T04:53:56;5.33;;;4.83;;
1569;SDS011;778;50.120;8.698;2023-07-28T04:56:29;4.60;;;4.20;;
1569;SDS011;778;50.120;8.698;2023-07-28T04:58:57;5.27;;;4.03;;
1569;SDS011;778;50.120;8.698;2023-07-28T05:01:26;3.83;;;3.63;;
1569;SDS011;778;50.120;8.698;2023-07-28T05:03:56;3.60;;;3.40;;
1569;SDS011;778;50.120;8.698;2023-07-28T05:06:27;7.30;;;3.87;;
1569;SDS011;778;50.120;8.698;2023-07-28T05:08:55;4.10;;;3.77;;
1569;SDS011;778;50.120;8.698;2023-07-28T05:11:33;3.73;;;3.43;;
1569;SDS011;778;50.120;8.698;2023-07-28T05:14:02;3.50;;;3.20;;
1569;SDS011;778;50.120;8.698;2023-07-28T05:16:33;4.27;;;3.97;;
1569;SDS011;778;50.120;8.698;2023-07-28T05:19:25;3.47;;;3.27;;
1569;SDS011;778;50.120;8.698;2023-07-28T05:22:12;3.53;;;3.23;;
1569;SDS011;778;50.120;8.698;2023-07-28T05:24:47;3.60;;;3.40;;
1569;SDS011;778;50.120;8.698;2023-07-28T05:27:19;4.20;;;3.87;;
1569;SDS011;778;50.120;8.698;2023-07-28T05:29:47;3.90;;;3.60;;
1569;SDS011;778;50.120;8.698;2023-07-28T05:32:16;4.00;;;3.70;;
1569;SDS011;778;50.120;8.698;2023-07-28T05:35:04;4.37;;;3.60;;
1569;SDS011;778;50.120;8.698;2023-07-28T05:37:33;3.97;;;3.57;;
1569;SDS011;778;50.120;8.698;2023-07-28T05:40:02;5.03;;;4.00;;
1569;SDS011;778;50.120;8.698;2023-07-28T05:42:33;4.40;;;4.00;;
1569;SDS011;778;50.120;8.698;2023-07-28T05:45:01;6.43;;;3.77;;
1569;SDS011;778;50.120;8.698;2023-07-28T05:47:30;4.03;;;3.73;;
1569;SDS011;778;50.120;8.698;2023-07-28T05:49:59;4.03;;;3.73;;
1569;SDS011;778;50.120;8.698;2023-07-28T05:52:32;3.73;;;3.40;;
1569;SDS011;778;50.120;8.698;2023-07-28T05:55:00;3.93;;;3.63;;
1569;SDS011;778;50.120;8.698;2023-07-28T05:57:29;4.30;;;3.90;;
1569;SDS011;778;50.120;8.698;2023-07-28T06:00:00;3.43;;;3.20;;
1569;SDS011;778;50.120;8.698;2023-07-28T06:02:39;4.87;;;4.47;;
1569;SDS011;778;50.120;8.698;2023-07-28T06:05:13;3.90;;;3.60;;
1569;SDS011;778;50.120;8.698;2023-07-28T06:07:43;6.23;;;4.23;;
1569;SDS011;778;50.120;8.698;2023-07-28T06:10:11;4.20;;;3.80;;
1569;SDS011;778;50.120;8.698;2023-07-28T06:12:40;3.50;;;3.30;;
1569;SDS011;778;50.120;8.698;2023-07-28T06:15:08;4.00;;;3.60;;
1569;SDS011;778;50.120;8.698;2023-07-28T06:17:38;3.70;;;3.40;;
1569;SDS011;778;50.120;8.698;2023-07-28T06:20:07;3.93;;;3.63;;
1569;SDS011;778;50.120;8.698;2023-07-28T06:22:37;4.37;;;3.97;;
1569;SDS011;778;50.120;8.698;2023-07-28T06:25:07;3.40;;;3.20;;
1569;SDS011;778;50.120;8.698;2023-07-28T06:27:37;4.33;;;4.03;;
1569;SDS011;778;50.120;8.698;2023-07-28T06:30:06;3.83;;;3.50;;
1569;SDS011;778;50.120;8.698;2023-07-28T06:32:36;3.47;;;3.13;;
1569;SDS011;778;50.120;8.698;2023-07-28T06:35:05;3.13;;;2.93;;
1569;SDS011;778;50.120;8.698;2023-07-28T06:37:36;3.87;;;3.60;;
1569;SDS011;778;50.120;8.698;2023-07-28T06:40:08;3.07;;;2.87;;
1569;SDS011;778;50.120;8.698;2023-07-28T06:42:37;3.40;;;3.10;;
1569;SDS011;778;50.120;8.698;2023-07-28T06:45:06;4.30;;;3.53;;
1569;SDS011;778;50.120;8.698;2023-07-28T06:47:35;4.97;;;3.27;;
1569;SDS011;778;50.120;8.698;2023-07-28T06:50:04;2.97;;;2.60;;
1569;SDS011;778;50.120;8.698;2023-07-28T06:52:33;2.90;;;2.70;;
1569;SDS011;778;50.120;8.698;2023-07-28T06:55:03;3.00;;;2.80;;
1569;SDS011;778;50.120;8.698;2023-07-28T06:57:35;2.83;;;2.63;;
1569;SDS011;778;50.120;8.698;2023-07-28T07:00:07;3.10;;;2.57;;
1569;SDS011;778;50.120;8.698;2023-07-28T07:02:37;2.20;;;2.00;;
1569;SDS011;778;50.120;8.698;2023-07-28T07:05:06;2.70;;;2.50;;
1569;SDS011;778;50.120;8.698;2023-07-28T07:07:35;3.93;;;2.23;;
1569;SDS011;778;50.120;8.698;2023-07-28T07:10:04;2.23;;;2.13;;
1569;SDS011;778;50.120;8.698;2023-07-28T07:12:35;1.90;;;1.80;;
1569;SDS011;778;50.120;8.698;2023-07-28T07:15:04;4.00;;;2.17;;
1569;SDS011;778;50.120;8.698;2023-07-28T07:17:34;2.40;;;2.20;;
1569;SDS011;778;50.120;8.698;2023-07-28T07:20:03;2.63;;;2.43;;
1569;SDS011;778;50.120;8.698;2023-07-28T07:22:33;1.60;;;1.50;;
1569;SDS011;778;50.120;8.698;2023-07-28T07:25:01;2.17;;;2.00;;
1569;SDS011;778;50.120;8.698;2023-07-28T07:27:31;2.10;;;1.40;;
1569;SDS011;778;50.120;8.698;2023-07-28T07:30:01;1.60;;;1.50;;
1569;SDS011;778;50.120;8.698;2023-07-28T07:32:32;1.70;;;1.60;;
1569;SDS011;778;50.120;8.698;2023-07-28T07:35:01;1.53;;;1.43;;
1569;SDS011;778;50.120;8.698;2023-07-28T07:37:30;2.60;;;1.37;;
1569;SDS011;778;50.120;8.698;2023-07-28T07:39:58;1.70;;;1.60;;
1569;SDS011;778;50.120;8.698;2023-07-28T07:42:28;2.17;;;1.40;;
1569;SDS011;778;50.120;8.698;2023-07-28T07:45:10;3.40;;;1.80;;
1569;SDS011;778;50.120;8.698;2023-07-28T07:47:39;2.87;;;1.40;;
1569;SDS011;778;50.120;8.698;2023-07-28T07:50:08;2.10;;;1.67;;
1569;SDS011;778;50.120;8.698;2023-07-28T07:52:39;1.87;;;1.60;;
1569;SDS011;778;50.120;8.698;2023-07-28T07:55:08;2.03;;;1.53;;
1569;SDS011;778;50.120;8.698;2023-07-28T07:57:38;1.90;;;1.80;;
1569;SDS011;778;50.120;8.698;2023-07-28T08:00:07;1.73;;;1.63;;
1569;SDS011;778;50.120;8.698;2023-07-28T08:02:39;1.93;;;1.70;;
1569;SDS011;778;50.120;8.698;2023-07-28T08:05:12;1.23;;;1.20;;
1569;SDS011;778;50.120;8.698;2023-07-28T08:07:40;1.73;;;1.10;;
1569;SDS011;778;50.120;8.698;2023-07-28T08:10:10;1.50;;;1.40;;
1569;SDS011;778;50.120;8.698;2023-07-28T08:12:40;1.60;;;1.43;;
1569;SDS011;778;50.120;8.698;2023-07-28T08:15:12;1.67;;;1.50;;
1569;SDS011;778;50.120;8.698;2023-07-28T08:17:41;1.80;;;1.70;;
1569;SDS011;778;50.120;8.698;2023-07-28T08:20:09;2.17;;;1.50;;
1569;SDS011;778;50.120;8.698;2023-07-28T08:22:38;1.70;;;1.60;;
1569;SDS011;778;50.120;8.698;2023-07-28T08:25:06;3.30;;;1.20;;
1569;SDS011;778;50.120;8.698;2023-07-28T08:27:35;1.20;;;1.20;;
1569;SDS011;778;50.120;8.698;2023-07-28T08:30:04;3.10;;;1.20;;
1569;SDS011;778;50.120;8.698;2023-07-28T08:32:35;2.43;;;1.13;;
1569;SDS011;778;50.120;8.698;2023-07-28T08:35:05;2.23;;;1.10;;
1569;SDS011;778;50.120;8.698;2023-07-28T08:37:34;1.50;;;1.40;;
1569;SDS011;778;50.120;8.698;2023-07-28T08:40:03;2.63;;;1.00;;
1569;SDS011;778;50.120;8.698;2023-07-28T08:42:35;2.30;;;1.07;;
1569;SDS011;778;50.120;8.698;2023-07-28T08:45:06;2.40;;;1.00;;
1569;SDS011;778;50.120;8.698;2023-07-28T08:47:37;0.87;;;0.87;;
1569;SDS011;778;50.120;8.698;2023-07-28T08:50:06;0.80;;;0.80;;
1569;SDS011;778;50.120;8.698;2023-07-28T08:52:36;2.03;;;0.80;;
1569;SDS011;778;50.120;8.698;2023-07-28T08:55:05;1.23;;;0.90;;
1569;SDS011;778;50.120;8.698;2023-07-28T08:57:35;1.00;;;1.00;;
1569;SDS011;778;50.120;8.698;2023-07-28T09:00:08;0.73;;;0.73;;
1569;SDS011;778;50.120;8.698;2023-07-28T09:02:42;1.10;;;1.00;;
1569;SDS011;778;50.120;8.698;2023-07-28T09:05:16;1.33;;;1.00;;
1569;SDS011;778;50.120;8.698;2023-07-28T09:07:46;0.77;;;0.77;;
1569;SDS011;778;50.120;8.698;2023-07-28T09:10:15;1.30;;;0.90;;
1569;SDS011;778;50.120;8.698;2023-07-28T09:12:44;0.60;;;0.53;;
1569;SDS011;778;50.120;8.698;2023-07-28T09:15:13;1.53;;;1.00;;
1569;SDS011;778;50.120;8.698;2023-07-28T09:17:44;3.97;;;1.77;;
1569;SDS011;778;50.120;8.698;2023-07-28T09:20:13;1.13;;;1.03;;
1569;SDS011;778;50.120;8.698;2023-07-28T09:22:44;1.77;;;0.80;;
1569;SDS011;778;50.120;8.698;2023-07-28T09:25:14;2.90;;;1.00;;
1569;SDS011;778;50.120;8.698;2023-07-28T09:27:51;2.03;;;1.07;;
1569;SDS011;778;50.120;8.698;2023-07-28T09:30:20;1.07;;;0.80;;
1569;SDS011;778;50.120;8.698;2023-07-28T09:32:51;0.90;;;0.70;;
1569;SDS011;778;50.120;8.698;2023-07-28T09:35:21;1.80;;;0.70;;
1569;SDS011;778;50.120;8.698;2023-07-28T09:37:50;1.03;;;0.83;;
1569;SDS011;778;50.120;8.698;2023-07-28T09:40:21;0.80;;;0.80;;
1569;SDS011;778;50.120;8.698;2023-07-28T09:42:51;2.13;;;1.17;;
1569;SDS011;778;50.120;8.698;2023-07-28T09:45:22;1.67;;;1.00;;
1569;SDS011;778;50.120;8.698;2023-07-28T09:48:05;0.83;;;0.83;;
1569;SDS011;778;50.120;8.698;2023-07-28T09:50:35;1.63;;;1.10;;
1569;SDS011;778;50.120;8.698;2023-07-28T09:53:07;1.37;;;0.70;;
1569;SDS011;778;50.120;8.698;2023-07-28T09:55:38;1.93;;;1.03;;
1569;SDS011;778;50.120;8.698;2023-07-28T09:58:09;0.93;;;0.83;;
1569;SDS011;778;50.120;8.698;2023-07-28T10:00:41;2.00;;;0.97;;
1569;SDS011;778;50.120;8.698;2023-07-28T10:03:11;3.90;;;1.30;;
1569;SDS011;778;50.120;8.698;2023-07-28T10:05:41;1.23;;;1.00;;
1569;SDS011;778;50.120;8.698;2023-07-28T10:08:11;2.57;;;1.00;;
1569;SDS011;778;50.120;8.698;2023-07-28T10:10:40;1.40;;;0.90;;
1569;SDS011;778;50.120;8.698;2023-07-28T10:13:18;0.90;;;0.80;;
1569;SDS011;778;50.120;8.698;2023-07-28T10:15:49;1.43;;;0.90;;
1569;SDS011;778;50.120;8.698;2023-07-28T10:18:20;0.60;;;0.50;;
1569;SDS011;778;50.120;8.698;2023-07-28T10:20:49;0.80;;;0.80;;
1569;SDS011;778;50.120;8.698;2023-07-28T10:23:19;1.30;;;1.10;;
1569;SDS011;778;50.120;8.698;2023-07-28T10:25:55;1.50;;;0.80;;
1569;SDS011;778;50.120;8.698;2023-07-28T10:28:28;1.00;;;1.00;;
1569;SDS011;778;50.120;8.698;2023-07-28T10:30:59;1.80;;;1.23;;
1569;SDS011;778;50.120;8.698;2023-07-28T10:33:31;2.10;;;1.10;;
1569;SDS011;778;50.120;8.698;2023-07-28T10:36:11;0.97;;;0.70;;
1569;SDS011;778;50.120;8.698;2023-07-28T10:38:41;1.17;;;0.90;;
1569;SDS011;778;50.120;8.698;2023-07-28T10:41:12;1.17;;;1.07;;
1569;SDS011;778;50.120;8.698;2023-07-28T10:43:43;1.27;;;1.00;;
1569;SDS011;778;50.120;8.698;2023-07-28T10:46:13;1.20;;;0.90;;
1569;SDS011;778;50.120;8.698;2023-07-28T10:48:45;1.23;;;1.00;;
1569;SDS011;778;50.120;8.698;2023-07-28T10:51:22;1.03;;;0.87;;
1569;SDS011;778;50.120;8.698;2023-07-28T10:53:54;1.07;;;0.97;;
1569;SDS011;778;50.120;8.698;2023-07-28T10:56:24;1.37;;;1.00;;
1569;SDS011;778;50.120;8.698;2023-07-28T10:58:56;1.00;;;0.90;;
1569;SDS011;778;50.120;8.698;2023-07-28T11:01:30;0.80;;;0.80;;
1569;SDS011;778;50.120;8.698;2023-07-28T11:04:09;1.60;;;0.90;;
1569;SDS011;778;50.120;8.698;2023-07-28T11:06:39;1.60;;;1.30;;
1569;SDS011;778;50.120;8.698;2023-07-28T11:09:10;2.50;;;1.30;;
1569;SDS011;778;50.120;8.698;2023-07-28T11:11:40;1.60;;;1.50;;
1569;SDS011;778;50.120;8.698;2023-07-28T11:14:14;1.27;;;1.20;;
1569;SDS011;778;50.120;8.698;2023-07-28T11:16:44;1.60;;;1.50;;
1569;SDS011;778;50.120;8.698;2023-07-28T11:19:16;3.13;;;1.10;;
1569;SDS011;778;50.120;8.698;2023-07-28T11:21:52;3.47;;;1.00;;
1569;SDS011;778;50.120;8.698;2023-07-28T11:24:22;1.10;;;1.00;;
1569;SDS011;778;50.120;8.698;2023-07-28T11:26:52;1.03;;;1.03;;
1569;SDS011;778;50.120;8.698;2023-07-28T11:29:22;1.37;;;1.13;;
1569;SDS011;778;50.120;8.698;2023-07-28T11:31:51;1.00;;;1.00;;
1569;SDS011;778;50.120;8.698;2023-07-28T11:34:22;2.30;;;0.97;;
1569;SDS011;778;50.120;8.698;2023-07-28T11:36:51;1.20;;;1.10;;
1569;SDS011;778;50.120;8.698;2023-07-28T11:39:20;2.70;;;1.10;;
1569;SDS011;778;50.120;8.698;2023-07-28T11:41:49;1.37;;;0.87;;
1569;SDS011;778;50.120;8.698;2023-07-28T11:44:21;1.73;;;1.63;;
1569;SDS011;778;50.120;8.698;2023-07-28T11:46:51;1.70;;;0.73;;
1569;SDS011;778;50.120;8.698;2023-07-28T11:49:23;1.10;;;1.03;;
1569;SDS011;778;50.120;8.698;2023-07-28T11:51:52;1.60;;;1.50;;
1569;SDS011;778;50.120;8.698;2023-07-28T11:54:25;1.57;;;1.47;;
1569;SDS011;778;50.120;8.698;2023-07-28T11:56:54;2.20;;;0.90;;
1569;SDS011;778;50.120;8.698;2023-07-28T11:59:24;1.50;;;1.10;;
1569;SDS011;778;50.120;8.698;2023-07-28T12:01:53;1.33;;;1.23;;
1569;SDS011;778;50.120;8.698;2023-07-28T12:04:29;1.60;;;1.40;;
1569;SDS011;778;50.120;8.698;2023-07-28T12:07:02;1.63;;;1.53;;
1569;SDS011;778;50.120;8.698;2023-07-28T12:09:48;1.60;;;1.50;;
1569;SDS011;778;50.120;8.698;2023-07-28T12:12:23;1.50;;;1.40;;
1569;SDS011;778;50.120;8.698;2023-07-28T12:14:53;1.43;;;1.33;;
1569;SDS011;778;50.120;8.698;2023-07-28T12:17:25;1.70;;;1.60;;
1569;SDS011;778;50.120;8.698;2023-07-28T12:20:16;2.57;;;1.67;;
1569;SDS011;778;50.120;8.698;2023-07-28T12:22:45;2.20;;;1.80;;
1569;SDS011;778;50.120;8.698;2023-07-28T12:25:15;3.03;;;2.50;;
1569;SDS011;778;50.120;8.698;2023-07-28T12:27:44;3.70;;;3.10;;
1569;SDS011;778;50.120;8.698;2023-07-28T12:30:12;3.43;;;3.13;;
1569;SDS011;778;50.120;8.698;2023-07-28T12:32:43;3.67;;;3.17;;
1569;SDS011;778;50.120;8.698;2023-07-28T12:35:15;4.57;;;3.40;;
1569;SDS011;778;50.120;8.698;2023-07-28T12:37:44;4.00;;;3.30;;
1569;SDS011;778;50.120;8.698;2023-07-28T12:40:15;3.40;;;3.20;;
1569;SDS011;778;50.120;8.698;2023-07-28T12:42:48;4.27;;;3.97;;
1569;SDS011;778;50.120;8.698;2023-07-28T12:45:19;4.13;;;3.60;;
1569;SDS011;778;50.120;8.698;2023-07-28T12:47:50;3.63;;;3.30;;
1569;SDS011;778;50.120;8.698;2023-07-28T12:50:23;4.00;;;3.40;;
1569;SDS011;778;50.120;8.698;2023-07-28T12:52:52;3.97;;;3.57;;
1569;SDS011;778;50.120;8.698;2023-07-28T12:55:23;3.27;;;3.07;;
1569;SDS011;778;50.120;8.698;2023-07-28T12:57:54;2.60;;;2.50;;
1569;SDS011;778;50.120;8.698;2023-07-28T13:00:24;3.67;;;3.37;;
1569;SDS011;778;50.120;8.698;2023-07-28T13:02:57;2.70;;;2.60;;
1569;SDS011;778;50.120;8.698;2023-07-28T13:05:27;2.80;;;2.60;;
1569;SDS011;778;50.120;8.698;2023-07-28T13:07:55;3.60;;;3.40;;
1569;SDS011;778;50.120;8.698;2023-07-28T13:10:27;4.00;;;3.30;;
1569;SDS011;778;50.120;8.698;2023-07-28T13:12:58;4.10;;;3.80;;
1569;SDS011;778;50.120;8.698;2023-07-28T13:15:27;3.70;;;3.50;;
1569;SDS011;778;50.120;8.698;2023-07-28T13:17:55;3.37;;;3.07;;
1569;SDS011;778;50.120;8.698;2023-07-28T13:20:24;3.33;;;3.13;;
1569;SDS011;778;50.120;8.698;2023-07-28T13:22:54;4.20;;;3.17;;
1569;SDS011;778;50.120;8.698;2023-07-28T13:25:22;3.50;;;3.20;;
1569;SDS011;778;50.120;8.698;2023-07-28T13:27:51;3.07;;;2.83;;
1569;SDS011;778;50.120;8.698;2023-07-28T13:30:19;5.03;;;4.23;;
1569;SDS011;778;50.120;8.698;2023-07-28T13:32:48;5.00;;;3.53;;
1569;SDS011;778;50.120;8.698;2023-07-28T13:35:17;3.17;;;2.97;;
1569;SDS011;778;50.120;8.698;2023-07-28T13:37:46;3.10;;;2.90;;
1569;SDS011;778;50.120;8.698;2023-07-28T13:40:15;2.77;;;2.37;;
1569;SDS011;778;50.120;8.698;2023-07-28T13:42:44;3.53;;;3.17;;
1569;SDS011;778;50.120;8.698;2023-07-28T13:45:13;2.80;;;2.60;;
1569;SDS011;778;50.120;8.698;2023-07-28T13:47:42;3.73;;;2.77;;
1569;SDS011;778;50.120;8.698;2023-07-28T13:50:11;4.70;;;3.10;;
1569;SDS011;778;50.120;8.698;2023-07-28T13:52:39;3.17;;;2.97;;
1569;SDS011;778;50.120;8.698;2023-07-28T13:55:08;2.73;;;2.53;;
1569;SDS011;778;50.120;8.698;2023-07-28T13:57:40;3.97;;;3.40;;
1569;SDS011;778;50.120;8.698;2023-07-28T14:00:09;4.23;;;3.93;;
1569;SDS011;778;50.120;8.698;2023-07-28T14:02:40;7.50;;;4.60;;
1569;SDS011;778;50.120;8.698;2023-07-28T14:05:08;4.50;;;3.53;;
1569;SDS011;778;50.120;8.698;2023-07-28T14:07:37;3.83;;;3.43;;
1569;SDS011;778;50.120;8.698;2023-07-28T14:10:05;3.80;;;3.50;;
1569;SDS011;778;50.120;8.698;2023-07-28T14:12:34;4.60;;;4.30;;
1569;SDS011;778;50.120;8.698;2023-07-28T14:15:05;3.47;;;3.27;;
1569;SDS011;778;50.120;8.698;2023-07-28T14:17:35;2.90;;;2.70;;
1569;SDS011;778;50.120;8.698;2023-07-28T14:20:04;3.20;;;2.83;;
1569;SDS011;778;50.120;8.698;2023-07-28T14:22:34;4.27;;;2.27;;
1569;SDS011;778;50.120;8.698;2023-07-28T14:25:03;2.47;;;2.27;;
1569;SDS011;778;50.120;8.698;2023-07-28T14:27:33;2.77;;;2.57;;
1569;SDS011;778;50.120;8.698;2023-07-28T14:30:01;3.43;;;2.87;;
1569;SDS011;778;50.120;8.698;2023-07-28T14:32:31;2.13;;;2.03;;
1569;SDS011;778;50.120;8.698;2023-07-28T14:35:00;2.30;;;2.20;;
1569;SDS011;778;50.120;8.698;2023-07-28T14:37:28;2.30;;;2.13;;
1569;SDS011;778;50.120;8.698;2023-07-28T14:39:57;2.60;;;2.40;;
1569;SDS011;778;50.120;8.698;2023-07-28T14:42:25;2.93;;;2.43;;
1569;SDS011;778;50.120;8.698;2023-07-28T14:44:54;2.30;;;2.10;;
1569;SDS011;778;50.120;8.698;2023-07-28T14:47:22;2.63;;;2.00;;
1569;SDS011;778;50.120;8.698;2023-07-28T14:49:52;4.60;;;2.83;;
1569;SDS011;778;50.120;8.698;2023-07-28T14:52:23;3.23;;;2.90;;
1569;SDS011;778;50.120;8.698;2023-07-28T14:54:51;5.17;;;3.53;;
1569;SDS011;778;50.120;8.698;2023-07-28T14:57:20;3.27;;;3.03;;
1569;SDS011;778;50.120;8.698;2023-07-28T15:00:00;2.83;;;2.63;;
1569;SDS011;778;50.120;8.698;2023-07-28T15:02:29;3.50;;;3.20;;
1569;SDS011;778;50.120;8.698;2023-07-28T15:04:59;4.57;;;4.20;;
1569;SDS011;778;50.120;8.698;2023-07-28T15:07:27;4.43;;;3.90;;
1569;SDS011;778;50.120;8.698;2023-07-28T15:09:56;8.57;;;7.77;;
1569;SDS011;778;50.120;8.698;2023-07-28T15:12:24;6.17;;;5.57;;
1569;SDS011;778;50.120;8.698;2023-07-28T15:14:53;5.80;;;5.37;;
1569;SDS011;778;50.120;8.698;2023-07-28T15:17:22;6.40;;;5.80;;
1569;SDS011;778;50.120;8.698;2023-07-28T15:19:51;4.13;;;3.77;;
1569;SDS011;778;50.120;8.698;2023-07-28T15:22:21;3.77;;;3.50;;
1569;SDS011;778;50.120;8.698;2023-07-28T15:24:49;3.57;;;3.27;;
1569;SDS011;778;50.120;8.698;2023-07-28T15:27:18;3.53;;;3.23;;
1569;SDS011;778;50.120;8.698;2023-07-28T15:29:46;3.17;;;2.97;;
1569;SDS011;778;50.120;8.698;2023-07-28T15:32:14;3.70;;;3.40;;
1569;SDS011;778;50.120;8.698;2023-07-28T15:34:43;4.20;;;3.90;;
1569;SDS011;778;50.120;8.698;2023-07-28T15:37:11;3.53;;;3.23;;
1569;SDS011;778;50.120;8.698;2023-07-28T15:39:41;3.10;;;2.90;;
1569;SDS011;778;50.120;8.698;2023-07-28T15:42:09;5.53;;;2.60;;
1569;SDS011;778;50.120;8.698;2023-07-28T15:44:38;4.03;;;3.70;;
1569;SDS011;778;50.120;8.698;2023-07-28T15:47:06;4.47;;;3.43;;
1569;SDS011;778;50.120;8.698;2023-07-28T15:49:35;5.20;;;4.80;;